Time;durP1;ratioP1;P1;durP2;ratioP2;P2;SDS_P1;SDS_P2;PMS_P1;PMS_P2;Temp;Humidity;BMP_temperature;BMP_pressure;BME280_temperature;BME280_humidity;BME280_pressure;Samples;Min_cycle;Max_cycle;Signal;HPM_P1;HPM_P2
2021/03/20 00:00:48;;;;;;;9.63;3.03;;;-3272.60;83.80;;;;;;4997720;28;20026;-68
2021/03/20 00:03:15;;;;;;;10.30;3.10;;;-3272.60;84.10;;;;;;5003754;28;20037;-68
2021/03/20 00:05:41;;;;;;;6.03;3.10;;;-3272.50;84.00;;;;;;4998477;28;20470;-68
2021/03/20 00:08:09;;;;;;;7.53;2.85;;;-3272.50;84.60;;;;;;5000178;28;20054;-67
2021/03/20 00:10:36;;;;;;;8.32;3.20;;;-3272.40;85.20;;;;;;5000827;28;20121;-68
2021/03/20 00:13:03;;;;;;;10.73;3.38;;;-3272.40;84.90;;;;;;5004463;28;20491;-69
2021/03/20 00:15:29;;;;;;;12.20;3.25;;;-3272.40;85.00;;;;;;5001379;28;20465;-67
2021/03/20 00:17:55;;;;;;;8.23;3.00;;;-3272.40;85.30;;;;;;5001379;28;20037;-68
2021/03/20 00:20:35;;;;;;;8.50;3.28;;;-3272.30;85.50;;;;;;5003146;28;20037;-68
2021/03/20 00:23:01;;;;;;;5.40;3.00;;;-3272.40;85.70;;;;;;5004053;28;20030;-68
2021/03/20 00:25:27;;;;;;;12.40;3.08;;;-3272.40;86.00;;;;;;4995749;28;20030;-68
2021/03/20 00:27:53;;;;;;;6.30;2.75;;;-3272.50;85.60;;;;;;4993167;28;20101;-69
2021/03/20 00:30:20;;;;;;;5.88;2.35;;;-3272.60;85.80;;;;;;4988219;28;20041;-68
2021/03/20 00:32:46;;;;;;;6.90;2.97;;;-3272.70;85.70;;;;;;4987961;28;20038;-68
2021/03/20 00:35:15;;;;;;;7.95;2.53;;;-3272.80;85.60;;;;;;4986719;28;20088;-69
2021/03/20 00:37:41;;;;;;;4.95;2.70;;;-3272.90;85.60;;;;;;4982796;28;20029;-68
2021/03/20 00:40:10;;;;;;;7.60;2.58;;;-3273.00;85.40;;;;;;4986844;28;20120;-67
2021/03/20 00:42:36;;;;;;;9.55;2.42;;;-3273.10;85.70;;;;;;5001981;28;20080;-67
2021/03/20 00:45:05;;;;;;;7.53;2.75;;;-3273.10;85.40;;;;;;5001958;28;20034;-68
2021/03/20 00:47:30;;;;;;;7.88;2.10;;;-3273.20;85.20;;;;;;5003145;28;20033;-68
2021/03/20 00:49:56;;;;;;;8.98;2.22;;;-3273.30;84.50;;;;;;5000024;28;20034;-69
2021/03/20 00:52:22;;;;;;;5.13;2.28;;;-3273.40;84.10;;;;;;4980326;28;20034;-69
2021/03/20 00:54:48;;;;;;;9.88;2.58;;;-3273.50;84.10;;;;;;4994959;28;20026;-67
2021/03/20 00:57:13;;;;;;;8.63;2.50;;;-3273.60;84.00;;;;;;5004881;28;20044;-68
2021/03/20 00:59:39;;;;;;;5.95;2.22;;;-3273.60;84.40;;;;;;5000318;28;20034;-68
2021/03/20 01:02:05;;;;;;;6.30;2.25;;;-3273.70;84.40;;;;;;5002448;28;20168;-70
2021/03/20 01:04:31;;;;;;;7.15;2.45;;;-3273.70;84.20;;;;;;5004470;28;20417;-67
2021/03/20 01:06:56;;;;;;;4.60;2.20;;;-3273.60;84.30;;;;;;4999956;28;20029;-67
2021/03/20 01:09:22;;;;;;;6.57;2.50;;;-3273.70;84.30;;;;;;5002663;28;20037;-68
2021/03/20 01:11:48;;;;;;;5.50;2.50;;;-3273.60;84.70;;;;;;5012073;28;20025;-68
2021/03/20 01:14:13;;;;;;;6.18;2.63;;;-3273.60;85.20;;;;;;5004782;28;20033;-68
2021/03/20 01:16:39;;;;;;;8.68;2.60;;;-3273.60;85.60;;;;;;4998525;28;20057;-68
2021/03/20 01:19:05;;;;;;;5.10;2.42;;;-3273.60;85.30;;;;;;5004545;28;20087;-68
2021/03/20 01:21:31;;;;;;;6.05;2.97;;;-3273.50;85.00;;;;;;4997128;28;20120;-68
2021/03/20 01:23:57;;;;;;;6.13;2.72;;;-3273.50;84.70;;;;;;4996906;28;20045;-67
2021/03/20 01:26:22;;;;;;;5.53;2.75;;;-3273.40;84.80;;;;;;4998522;28;20084;-67
2021/03/20 01:28:48;;;;;;;5.00;2.28;;;-3273.30;85.30;;;;;;4997708;28;20041;-67
2021/03/20 01:31:14;;;;;;;6.97;3.00;;;-3273.10;84.70;;;;;;5001163;28;20479;-68
2021/03/20 01:33:40;;;;;;;5.05;2.65;;;-3273.00;85.20;;;;;;5005470;28;20030;-68
2021/03/20 01:36:07;;;;;;;8.68;2.55;;;-3272.90;85.30;;;;;;5004117;28;20383;-67
2021/03/20 01:38:33;;;;;;;8.73;3.05;;;-3272.80;86.00;;;;;;5003497;28;20176;-69
2021/03/20 01:41:10;;;;;;;6.93;2.67;;;-3272.70;86.70;;;;;;4994997;28;20594;-68
2021/03/20 01:43:36;;;;;;;7.22;2.80;;;-3272.70;86.50;;;;;;5000278;28;20017;-67
2021/03/20 01:46:36;;;;;;;9.07;2.78;;;-3272.60;86.50;;;;;;4997730;28;20041;-68
2021/03/20 01:49:18;;;;;;;7.18;2.58;;;-3272.60;86.50;;;;;;4989915;28;20034;-68
2021/03/20 01:51:58;;;;;;;7.18;2.67;;;-3272.60;86.90;;;;;;5004081;28;20065;-69
2021/03/20 01:54:29;;;;;;;5.95;2.83;;;-3272.50;87.00;;;;;;4998446;28;20113;-68
2021/03/20 01:56:55;;;;;;;5.78;2.83;;;-3272.40;86.90;;;;;;4996580;28;20105;-68
2021/03/20 01:59:22;;;;;;;7.28;3.20;;;-3272.40;86.90;;;;;;4998016;28;20030;-68
2021/03/20 02:01:48;;;;;;;5.88;2.50;;;-3272.30;86.90;;;;;;4997084;28;20132;-68
2021/03/20 02:04:14;;;;;;;9.73;3.05;;;-3272.30;87.00;;;;;;5008851;28;20132;-67
2021/03/20 02:06:40;;;;;;;11.15;2.90;;;-3272.20;87.30;;;;;;5005932;28;20030;-68
2021/03/20 02:09:09;;;;;;;8.45;3.00;;;-3272.20;87.60;;;;;;5007571;28;20022;-68
2021/03/20 02:11:41;;;;;;;6.03;2.75;;;-3272.10;87.70;;;;;;5005608;28;20036;-69
2021/03/20 02:14:28;;;;;;;8.65;2.70;;;-3272.10;87.90;;;;;;5004488;28;20022;-68
2021/03/20 02:17:09;;;;;;;7.00;2.67;;;-3272.20;88.00;;;;;;5006043;28;20030;-68
2021/03/20 02:20:02;;;;;;;7.28;2.65;;;-3272.30;88.10;;;;;;5004050;28;20038;-68
2021/03/20 02:22:52;;;;;;;9.52;3.33;;;-3272.30;88.10;;;;;;5007236;28;20037;-68
2021/03/20 02:25:24;;;;;;;5.78;2.65;;;-3272.40;88.00;;;;;;4999445;28;20040;-68
2021/03/20 02:28:26;;;;;;;6.15;3.38;;;-3272.50;88.20;;;;;;5003460;28;20038;-67
2021/03/20 02:31:36;;;;;;;8.10;2.85;;;-3272.50;88.20;;;;;;5006167;28;20057;-67
2021/03/20 02:34:24;;;;;;;5.18;2.90;;;-3272.60;88.10;;;;;;5004654;28;20386;-67
2021/03/20 02:37:21;;;;;;;5.78;2.40;;;-3272.80;87.80;;;;;;5006075;28;20059;-68
2021/03/20 02:40:12;;;;;;;6.57;2.92;;;-3272.90;87.70;;;;;;5004481;28;20045;-68
2021/03/20 02:42:46;;;;;;;4.77;2.40;;;-3273.10;87.80;;;;;;5005049;28;20430;-67
2021/03/20 02:45:46;;;;;;;7.22;2.70;;;-3273.20;87.40;;;;;;5001363;28;20272;-68
2021/03/20 02:48:12;;;;;;;8.02;2.72;;;-3273.30;87.20;;;;;;4992488;28;20061;-68
2021/03/20 02:50:55;;;;;;;7.45;2.78;;;-3273.30;87.10;;;;;;5006232;28;20073;-68
2021/03/20 02:53:29;;;;;;;5.43;2.63;;;-3273.50;86.90;;;;;;5002947;28;20026;-68
2021/03/20 02:55:57;;;;;;;6.63;2.67;;;-3273.50;86.40;;;;;;5002972;28;20436;-69
2021/03/20 02:58:46;;;;;;;6.03;2.35;;;-3273.60;85.80;;;;;;4986876;28;20073;-69
2021/03/20 03:01:17;;;;;;;9.07;2.30;;;-3273.70;85.10;;;;;;5001491;28;20073;-67
2021/03/20 03:03:44;;;;;;;5.60;2.57;;;-3273.70;84.80;;;;;;5005663;28;20034;-67
2021/03/20 03:06:12;;;;;;;6.95;2.53;;;-3273.80;84.90;;;;;;5006793;28;20689;-67
2021/03/20 03:08:46;;;;;;;5.47;2.33;;;-3273.80;85.10;;;;;;5004720;28;20038;-69
2021/03/20 03:11:24;;;;;;;7.53;2.60;;;-3273.80;85.30;;;;;;5007559;28;20530;-68
2021/03/20 03:13:57;;;;;;;7.05;2.60;;;-3273.90;85.80;;;;;;5005262;28;20030;-68
2021/03/20 03:16:30;;;;;;;7.75;2.25;;;-3273.90;86.30;;;;;;5006609;28;20483;-68
2021/03/20 03:18:59;;;;;;;7.95;2.38;;;-3274.00;86.50;;;;;;5004350;28;20049;-67
2021/03/20 03:21:29;;;;;;;5.10;2.55;;;-3274.00;86.90;;;;;;5007365;28;20049;-67
2021/03/20 03:23:55;;;;;;;6.70;2.55;;;-3274.00;87.20;;;;;;5004566;28;20030;-67
2021/03/20 03:26:28;;;;;;;5.47;2.72;;;-3274.10;87.10;;;;;;4998264;28;20041;-67
2021/03/20 03:28:58;;;;;;;5.65;2.60;;;-3274.10;87.00;;;;;;5002581;28;20265;-66
2021/03/20 03:31:34;;;;;;;8.32;2.60;;;-3274.10;87.40;;;;;;5006270;28;20030;-66
2021/03/20 03:34:12;;;;;;;6.65;2.67;;;-3274.10;87.10;;;;;;5006511;28;20030;-65
2021/03/20 03:36:54;;;;;;;6.22;2.33;;;-3274.10;87.10;;;;;;4986059;28;20037;-66
2021/03/20 03:39:26;;;;;;;4.70;1.98;;;-3274.20;87.00;;;;;;4998034;28;20025;-66
2021/03/20 03:41:51;;;;;;;7.93;2.78;;;-3274.20;87.00;;;;;;5005982;28;20490;-67
2021/03/20 03:44:17;;;;;;;9.25;2.63;;;-3274.30;87.00;;;;;;4992873;28;20041;-66
2021/03/20 03:46:44;;;;;;;6.60;2.85;;;-3274.30;87.00;;;;;;5003781;28;20034;-66
2021/03/20 03:49:16;;;;;;;6.88;3.08;;;-3274.30;86.90;;;;;;5002187;28;20022;-66
2021/03/20 03:51:42;;;;;;;6.45;2.85;;;-3274.30;86.40;;;;;;5004019;28;20394;-66
2021/03/20 03:54:07;;;;;;;7.80;3.05;;;-3274.30;85.90;;;;;;4998068;28;20030;-66
2021/03/20 03:56:53;;;;;;;10.48;3.40;;;-3274.30;85.50;;;;;;5003043;28;20028;-68
2021/03/20 03:59:23;;;;;;;6.45;2.35;;;-3274.40;85.20;;;;;;4999159;28;20116;-68
2021/03/20 04:02:15;;;;;;;7.57;2.53;;;-3274.40;84.70;;;;;;5006504;28;20030;-66
2021/03/20 04:04:59;;;;;;;5.70;2.28;;;-3274.40;84.50;;;;;;4977629;28;20049;-66
2021/03/20 04:07:46;;;;;;;4.40;2.40;;;-3274.40;84.30;;;;;;4989072;28;20103;-64
2021/03/20 04:10:41;;;;;;;7.07;2.65;;;-3274.40;84.40;;;;;;5003150;28;20086;-68
2021/03/20 04:13:44;;;;;;;5.78;2.25;;;-3274.50;84.30;;;;;;5005137;28;20494;-66
2021/03/20 04:16:16;;;;;;;4.30;2.08;;;-3274.50;84.00;;;;;;4996313;28;20475;-66
2021/03/20 04:19:10;;;;;;;9.35;2.45;;;-3274.50;84.10;;;;;;4998489;28;20044;-66
2021/03/20 04:21:59;;;;;;;4.18;2.25;;;-3274.50;84.30;;;;;;5007731;28;20018;-66
2021/03/20 04:24:29;;;;;;;7.47;2.10;;;-3274.50;84.40;;;;;;5004021;28;20037;-67
2021/03/20 04:27:09;;;;;;;5.88;2.25;;;-3274.40;84.70;;;;;;5009420;28;20053;-66
2021/03/20 04:29:47;;;;;;;6.57;2.25;;;-3274.40;84.90;;;;;;5008135;28;20029;-67
2021/03/20 04:32:24;;;;;;;4.35;1.95;;;-3274.40;85.50;;;;;;5009376;28;20722;-66
2021/03/20 04:35:03;;;;;;;7.70;2.22;;;-3274.40;85.40;;;;;;5006220;28;20073;-65
2021/03/20 04:37:41;;;;;;;7.13;2.60;;;-3274.40;85.40;;;;;;5002924;28;20430;-66
2021/03/20 04:40:24;;;;;;;3.47;1.75;;;-3274.40;85.30;;;;;;5003432;28;20041;-66
2021/03/20 04:42:50;;;;;;;4.35;2.22;;;-3274.40;85.10;;;;;;5011325;28;20029;-66
2021/03/20 04:45:28;;;;;;;5.22;2.20;;;-3274.40;85.30;;;;;;5008388;28;20037;-66
2021/03/20 04:47:56;;;;;;;6.88;2.03;;;-3274.30;84.60;;;;;;5002893;28;20510;-67
2021/03/20 04:50:25;;;;;;;6.13;2.17;;;-3274.40;84.00;;;;;;4997480;28;20124;-66
2021/03/20 04:52:52;;;;;;;8.15;2.15;;;-3274.30;83.90;;;;;;5008747;28;20771;-67
2021/03/20 04:55:18;;;;;;;6.75;2.53;;;-3274.30;84.40;;;;;;5008061;28;20441;-66
2021/03/20 04:58:13;;;;;;;5.32;2.08;;;-3274.30;84.50;;;;;;5007644;28;20041;-66
2021/03/20 05:01:01;;;;;;;13.27;2.67;;;-3274.30;84.70;;;;;;4999460;28;20046;-66
2021/03/20 05:03:32;;;;;;;4.68;2.25;;;-3274.30;84.90;;;;;;5007650;28;20037;-66
2021/03/20 05:06:12;;;;;;;;;;;-3274.30;85.10;;;;;;5009271;28;20084;-67
2021/03/20 05:08:57;;;;;;;5.20;1.92;;;-3274.40;85.10;;;;;;4995335;28;20055;-67
2021/03/20 05:11:31;;;;;;;6.40;2.45;;;-3274.30;84.80;;;;;;5003165;28;20022;-66
2021/03/20 05:14:26;;;;;;;10.00;2.13;;;-3274.40;84.70;;;;;;5004232;28;20022;-67
2021/03/20 05:16:56;;;;;;;3.80;1.90;;;-3274.40;84.60;;;;;;5005054;28;20207;-67
2021/03/20 05:19:24;;;;;;;6.70;2.42;;;-3274.40;84.70;;;;;;5004255;28;20033;-66
2021/03/20 05:21:51;;;;;;;4.07;2.17;;;-3274.40;84.70;;;;;;5007769;28;20084;-65
2021/03/20 05:24:27;;;;;;;5.63;2.38;;;-3274.40;84.90;;;;;;5003646;28;20073;-66
2021/03/20 05:26:54;;;;;;;5.18;2.20;;;-3274.50;84.90;;;;;;5007116;28;20441;-68
2021/03/20 05:29:20;;;;;;;5.20;2.28;;;-3274.50;85.00;;;;;;5005627;28;20033;-65
2021/03/20 05:31:46;;;;;;;6.85;2.63;;;-3274.50;84.90;;;;;;5008839;28;20030;-67
2021/03/20 05:34:37;;;;;;;5.75;2.20;;;-3274.50;84.20;;;;;;4999980;28;20398;-66
2021/03/20 05:37:04;;;;;;;4.80;2.00;;;-3274.50;83.60;;;;;;5001727;28;20030;-66
2021/03/20 05:39:30;;;;;;;6.18;2.53;;;-3274.60;83.70;;;;;;5006369;28;20021;-66
2021/03/20 05:42:15;;;;;;;8.50;2.10;;;-3274.60;83.60;;;;;;4999095;28;20576;-66
2021/03/20 05:45:13;;;;;;;5.43;2.30;;;-3274.50;83.70;;;;;;5003914;28;20113;-67
2021/03/20 05:48:07;;;;;;;5.30;2.53;;;-3274.60;83.80;;;;;;5008370;28;20186;-66
2021/03/20 05:50:51;;;;;;;3.00;1.48;;;-3274.60;83.70;;;;;;5004272;28;20383;-66
2021/03/20 05:53:35;;;;;;;3.85;2.10;;;-3274.70;84.00;;;;;;5005313;28;20320;-66
2021/03/20 05:56:41;;;;;;;4.70;2.00;;;-3274.70;84.20;;;;;;5005559;28;20061;-66
2021/03/20 05:59:36;;;;;;;3.92;2.17;;;-3274.70;84.10;;;;;;4981791;28;20026;-67
2021/03/20 06:02:23;;;;;;;5.72;2.22;;;-3274.70;84.10;;;;;;5006423;28;20112;-66
2021/03/20 06:05:07;;;;;;;5.10;2.47;;;-3274.70;83.40;;;;;;5000979;28;20034;-66
2021/03/20 06:07:39;;;;;;;6.93;2.10;;;-3274.70;83.30;;;;;;5002537;28;20057;-67
2021/03/20 06:10:07;;;;;;;7.82;2.00;;;-3274.70;83.20;;;;;;4997577;28;20060;-67
2021/03/20 06:12:50;;;;;;;5.63;2.38;;;-3274.70;83.20;;;;;;5004481;28;20029;-68
2021/03/20 06:15:53;;;;;;;5.03;2.05;;;-3274.70;83.30;;;;;;4999887;28;20513;-66
2021/03/20 06:18:56;;;;;;;5.88;2.55;;;-3274.70;83.00;;;;;;5000372;28;20510;-66
2021/03/20 06:22:02;;;;;;;5.50;1.70;;;-3274.80;82.90;;;;;;5001541;28;20042;-68
2021/03/20 06:25:01;;;;;;;7.03;2.38;;;-3274.90;82.80;;;;;;5005865;28;20069;-66
2021/03/20 06:27:35;;;;;;;6.30;2.13;;;-3274.90;82.90;;;;;;4999780;28;20109;-66
2021/03/20 06:30:25;;;;;;;8.02;2.30;;;-3275.00;83.10;;;;;;4999760;28;20395;-66
2021/03/20 06:32:55;;;;;;;6.60;2.08;;;-3275.00;83.00;;;;;;4997516;28;20030;-66
2021/03/20 06:35:34;;;;;;;4.78;2.00;;;-3275.00;82.80;;;;;;5005786;28;20045;-67
2021/03/20 06:38:03;;;;;;;5.10;1.63;;;-3275.00;82.90;;;;;;4998376;28;20112;-66
2021/03/20 06:40:49;;;;;;;7.10;2.03;;;-3275.10;82.70;;;;;;5004312;28;20041;-66
2021/03/20 06:43:18;;;;;;;4.63;1.92;;;-3275.20;82.60;;;;;;5007448;28;20164;-66
2021/03/20 06:45:44;;;;;;;6.28;1.80;;;-3275.30;81.70;;;;;;5003048;28;20038;-66
2021/03/20 06:48:17;;;;;;;8.02;2.28;;;-3275.40;81.40;;;;;;4998379;28;20597;-66
2021/03/20 06:50:48;;;;;;;6.38;2.05;;;-3275.50;81.60;;;;;;5004552;28;20037;-68
2021/03/20 06:53:17;;;;;;;4.70;2.03;;;-3275.50;81.50;;;;;;5004502;28;20029;-66
2021/03/20 06:55:50;;;;;;;5.43;2.70;;;-3275.50;81.00;;;;;;5006432;28;20030;-66
2021/03/20 06:58:25;;;;;;;4.97;2.10;;;-3275.60;81.30;;;;;;5005269;28;20454;-68
2021/03/20 07:00:51;;;;;;;4.18;2.10;;;-3275.60;80.80;;;;;;5001031;28;20117;-66
2021/03/20 07:03:49;;;;;;;4.35;1.63;;;-3275.70;81.30;;;;;;5005339;28;20026;-66
2021/03/20 07:06:52;;;;;;;8.18;1.88;;;-3275.70;79.80;;;;;;5002979;28;20041;-67
2021/03/20 07:09:18;;;;;;;4.53;1.60;;;-3275.80;80.10;;;;;;4991993;28;20172;-66
2021/03/20 07:12:05;;;;;;;5.82;1.70;;;-3275.80;80.40;;;;;;5003665;28;20097;-66
2021/03/20 07:14:40;;;;;;;5.35;2.00;;;-3275.80;80.00;;;;;;5000065;28;20026;-66
2021/03/20 07:17:30;;;;;;;8.80;2.10;;;-3275.90;80.50;;;;;;5000915;28;20029;-66
2021/03/20 07:19:58;;;;;;;3.40;1.83;;;-3276.00;80.00;;;;;;4989026;28;20464;-67
2021/03/20 07:22:32;;;;;;;6.60;2.30;;;-3276.00;79.50;;;;;;5002910;28;20054;-66
2021/03/20 07:25:00;;;;;;;3.78;2.00;;;-3276.10;78.90;;;;;;4997931;28;20029;-68
2021/03/20 07:27:32;;;;;;;5.78;2.20;;;-3276.10;79.00;;;;;;5001077;28;20030;-67
2021/03/20 07:30:19;;;;;;;7.20;2.13;;;-3276.20;78.90;;;;;;5002138;28;20022;-67
2021/03/20 07:32:44;;;;;;;5.88;1.83;;;-3276.30;78.30;;;;;;5006245;28;20604;-67
2021/03/20 07:35:21;;;;;;;4.30;1.70;;;-3276.30;78.20;;;;;;5003497;28;20018;-66
2021/03/20 07:37:51;;;;;;;3.35;1.70;;;-3276.40;78.10;;;;;;5003995;28;20688;-67
2021/03/20 07:40:33;;;;;;;3.37;1.77;;;-3276.40;77.40;;;;;;5000967;28;20410;-66
2021/03/20 07:43:20;;;;;;;4.47;1.45;;;-3276.40;76.60;;;;;;5000931;28;20287;-66
2021/03/20 07:45:49;;;;;;;2.83;1.55;;;-3276.50;76.80;;;;;;5002793;28;20022;-67
2021/03/20 07:48:23;;;;;;;7.15;1.42;;;-3276.50;76.40;;;;;;5005925;28;20445;-66
2021/03/20 07:51:05;;;;;;;3.65;1.70;;;-3276.60;76.60;;;;;;5001560;28;20057;-67
2021/03/20 07:53:40;;;;;;;8.75;1.60;;;-3276.60;76.90;;;;;;4999947;28;20092;-66
2021/03/20 07:56:20;;;;;;;5.47;1.90;;;-3276.70;76.50;;;;;;5006724;28;20026;-65
2021/03/20 07:58:48;;;;;;;3.60;1.38;;;0.00;75.80;;;;;;5008031;28;20064;-66
2021/03/20 08:01:20;;;;;;;5.53;1.42;;;0.00;75.80;;;;;;5006428;28;20021;-66
2021/03/20 08:03:56;;;;;;;4.63;1.90;;;0.00;75.40;;;;;;5007120;28;20018;-66
2021/03/20 08:06:40;;;;;;;6.60;1.70;;;0.10;75.00;;;;;;4999654;28;20035;-66
2021/03/20 08:09:18;;;;;;;4.40;1.65;;;0.10;75.40;;;;;;5004825;28;20022;-67
2021/03/20 08:11:45;;;;;;;3.78;1.58;;;0.20;75.00;;;;;;5006577;28;20172;-67
2021/03/20 08:14:15;;;;;;;3.55;1.42;;;0.40;75.40;;;;;;5001056;28;20018;-67
2021/03/20 08:16:42;;;;;;;5.05;1.50;;;0.40;73.50;;;;;;5002041;28;20030;-67
2021/03/20 08:19:14;;;;;;;2.83;1.30;;;0.50;73.30;;;;;;5006402;28;20028;-66
2021/03/20 08:21:48;;;;;;;3.17;1.50;;;0.60;72.80;;;;;;5005525;28;20022;-66
2021/03/20 08:24:42;;;;;;;4.40;1.40;;;0.80;72.40;;;;;;5005916;28;20044;-68
2021/03/20 08:27:48;;;;;;;4.60;1.70;;;0.70;71.70;;;;;;5002897;28;20053;-66
2021/03/20 08:30:28;;;;;;;3.75;1.60;;;1.10;72.70;;;;;;5005760;28;20030;-66
2021/03/20 08:33:08;;;;;;;8.70;1.58;;;1.20;72.50;;;;;;4999378;28;20021;-66
2021/03/20 08:35:46;;;;;;;4.13;1.10;;;1.40;71.10;;;;;;5004646;28;20061;-67
2021/03/20 08:38:49;;;;;;;5.03;1.80;;;1.20;69.60;;;;;;5002515;28;20999;-66
2021/03/20 08:41:35;;;;;;;4.07;0.98;;;1.30;68.20;;;;;;4999248;28;20030;-66
2021/03/20 08:44:30;;;;;;;4.50;1.42;;;1.30;67.10;;;;;;5006324;28;20033;-66
2021/03/20 08:47:33;;;;;;;4.60;1.65;;;1.40;66.50;;;;;;5007789;28;20038;-67
2021/03/20 08:50:23;;;;;;;5.13;1.35;;;1.30;66.70;;;;;;5000524;28;20524;-66
2021/03/20 08:53:12;;;;;;;6.87;1.30;;;1.60;66.00;;;;;;5005716;28;20030;-67
2021/03/20 08:56:04;;;;;;;3.17;1.30;;;1.80;65.30;;;;;;5010607;28;20271;-66
2021/03/20 08:58:48;;;;;;;3.53;1.27;;;2.00;64.30;;;;;;5007669;28;20038;-67
2021/03/20 09:01:44;;;;;;;3.30;1.10;;;2.10;63.30;;;;;;5008890;28;20038;-67
2021/03/20 09:04:16;;;;;;;3.83;0.98;;;2.10;63.60;;;;;;5008318;28;20091;-66
2021/03/20 09:06:49;;;;;;;3.53;1.42;;;2.30;63.10;;;;;;5001198;28;20080;-67
2021/03/20 09:09:33;;;;;;;3.05;1.15;;;2.40;62.60;;;;;;5007709;28;20060;-67
2021/03/20 09:12:25;;;;;;;4.60;1.42;;;2.10;60.60;;;;;;5004006;28;20115;-66
2021/03/20 09:14:52;;;;;;;2.35;1.38;;;2.20;61.30;;;;;;5008781;28;20548;-67
2021/03/20 09:17:29;;;;;;;2.78;0.98;;;2.10;61.40;;;;;;5004338;28;20202;-67
2021/03/20 09:20:32;;;;;;;2.80;1.13;;;2.20;60.10;;;;;;5005570;28;20035;-66
2021/03/20 09:22:59;;;;;;;3.45;1.50;;;2.30;60.40;;;;;;5001412;28;20057;-66
2021/03/20 09:25:34;;;;;;;5.78;1.42;;;2.10;59.70;;;;;;5008276;28;20041;-67
2021/03/20 09:28:05;;;;;;;2.97;1.10;;;2.60;60.90;;;;;;5006508;28;20105;-66
2021/03/20 09:30:50;;;;;;;3.88;1.35;;;2.90;60.60;;;;;;5006519;28;20034;-67
2021/03/20 09:33:15;;;;;;;6.38;1.30;;;2.80;58.50;;;;;;5007478;28;20034;-67
2021/03/20 09:35:47;;;;;;;2.28;0.98;;;2.60;59.20;;;;;;5008285;28;20117;-67
2021/03/20 09:38:33;;;;;;;1.98;1.15;;;2.60;57.50;;;;;;5007779;28;20681;-66
2021/03/20 09:41:03;;;;;;;3.63;1.30;;;2.70;59.60;;;;;;5001597;28;20261;-67
2021/03/20 09:43:31;;;;;;;3.05;1.48;;;2.80;57.70;;;;;;4995174;28;20065;-67
2021/03/20 09:46:45;;;;;;;3.72;1.08;;;2.70;56.80;;;;;;5000200;28;20489;-67
2021/03/20 09:49:10;;;;;;;6.88;1.92;;;2.50;56.60;;;;;;5001723;28;20018;-67
2021/03/20 09:51:51;;;;;;;2.65;1.23;;;2.60;57.50;;;;;;5003633;28;20022;-66
2021/03/20 09:54:26;;;;;;;3.92;1.35;;;2.40;57.60;;;;;;4999774;28;20511;-66
2021/03/20 09:59:43;;;;;;;2.80;1.10;;;2.50;58.00;;;;;;5004914;28;20100;-64
2021/03/20 10:02:09;;;;;;;2.17;1.35;;;2.50;58.00;;;;;;5008285;28;20425;-67
2021/03/20 10:04:36;;;;;;;5.35;1.60;;;2.60;58.30;;;;;;5007691;28;20065;-67
2021/03/20 10:07:21;;;;;;;2.17;1.20;;;2.60;59.30;;;;;;5007339;28;20033;-67
2021/03/20 10:10:28;;;;;;;4.97;1.38;;;2.70;57.90;;;;;;5004232;28;20026;-67
2021/03/20 10:13:07;;;;;;;3.58;1.10;;;2.60;58.40;;;;;;4999399;28;20267;-67
2021/03/20 10:15:35;;;;;;;2.80;1.17;;;2.70;59.00;;;;;;5002653;28;20030;-67
2021/03/20 10:18:14;;;;;;;3.20;1.17;;;2.60;57.90;;;;;;5003935;28;20147;-68
2021/03/20 10:20:51;;;;;;;3.10;1.40;;;2.60;58.40;;;;;;5004265;28;20033;-66
2021/03/20 10:23:38;;;;;;;2.33;1.25;;;2.60;58.40;;;;;;4999543;28;20037;-67
2021/03/20 10:26:33;;;;;;;3.17;1.20;;;2.80;57.90;;;;;;5006816;28;20639;-67
2021/03/20 10:29:02;;;;;;;3.17;1.30;;;3.10;59.00;;;;;;4982522;28;20037;-67
2021/03/20 10:31:35;;;;;;;4.68;1.42;;;3.30;58.80;;;;;;5001269;28;20041;-67
2021/03/20 10:34:13;;;;;;;3.33;1.20;;;3.40;56.60;;;;;;5003391;28;20081;-67
2021/03/20 10:36:45;;;;;;;5.00;1.40;;;3.20;57.30;;;;;;4997033;28;20391;-66
2021/03/20 10:39:32;;;;;;;2.40;1.05;;;3.40;57.50;;;;;;5000499;28;20027;-67
2021/03/20 10:42:16;;;;;;;4.78;1.40;;;3.20;55.90;;;;;;5006781;28;20025;-66
2021/03/20 10:44:45;;;;;;;3.00;1.30;;;3.70;56.90;;;;;;5003236;28;20034;-66
2021/03/20 10:47:20;;;;;;;3.05;1.38;;;3.70;55.40;;;;;;4998521;28;20418;-67
2021/03/20 10:50:02;;;;;;;4.28;1.50;;;3.70;57.00;;;;;;5003271;28;20029;-66
2021/03/20 10:52:39;;;;;;;7.13;1.70;;;3.90;57.00;;;;;;5004624;28;20172;-67
2021/03/20 10:55:19;;;;;;;3.30;1.52;;;4.00;56.40;;;;;;4999305;28;20102;-67
2021/03/20 10:57:46;;;;;;;3.38;1.50;;;4.10;55.50;;;;;;4998854;28;20117;-67
2021/03/20 11:00:20;;;;;;;2.95;1.70;;;3.90;54.30;;;;;;5001699;28;20038;-67
2021/03/20 11:02:46;;;;;;;6.00;1.60;;;4.10;55.00;;;;;;5001789;28;20038;-68
2021/03/20 11:05:20;;;;;;;3.22;1.40;;;4.00;53.50;;;;;;4998006;28;20409;-67
2021/03/20 11:08:11;;;;;;;5.68;1.73;;;3.70;55.50;;;;;;5001548;28;20304;-67
2021/03/20 11:10:42;;;;;;;5.40;1.65;;;3.80;55.20;;;;;;5002795;28;20025;-67
2021/03/20 11:13:27;;;;;;;5.40;1.17;;;4.00;56.80;;;;;;5001870;28;20034;-67
2021/03/20 11:16:05;;;;;;;4.60;1.65;;;3.80;55.70;;;;;;4983935;28;20117;-67
2021/03/20 11:18:35;;;;;;;2.80;1.23;;;3.80;56.50;;;;;;4999131;28;20112;-67
2021/03/20 11:21:00;;;;;;;3.22;1.40;;;3.90;56.70;;;;;;5000643;28;20031;-67
2021/03/20 11:23:35;;;;;;;6.00;1.52;;;4.10;57.40;;;;;;4996837;28;20029;-66
2021/03/20 11:26:34;;;;;;;4.20;1.80;;;4.20;57.20;;;;;;5001694;28;20057;-66
2021/03/20 11:29:02;;;;;;;3.55;1.75;;;4.50;56.00;;;;;;4956572;28;20590;-67
2021/03/20 11:31:35;;;;;;;4.97;2.08;;;4.20;55.50;;;;;;4996027;28;20550;-66
2021/03/20 11:34:04;;;;;;;4.55;1.95;;;4.50;57.00;;;;;;4996261;28;20513;-67
2021/03/20 11:36:30;;;;;;;4.93;1.90;;;4.80;58.00;;;;;;4997553;28;20114;-68
2021/03/20 11:38:56;;;;;;;5.00;1.95;;;4.60;56.50;;;;;;4995321;28;20677;-67
2021/03/20 11:41:25;;;;;;;3.80;1.83;;;4.60;56.10;;;;;;5000361;28;20080;-67
2021/03/20 11:44:04;;;;;;;4.15;1.95;;;5.00;56.30;;;;;;4995578;28;20088;-66
2021/03/20 11:46:36;;;;;;;4.57;2.25;;;5.10;56.00;;;;;;4991747;28;20025;-67
2021/03/20 11:49:03;;;;;;;;;;;5.20;56.00;;;;;;4997915;28;20034;-67
2021/03/20 11:51:35;;;;;;;6.35;2.05;;;5.20;56.80;;;;;;5000904;28;19970;-67
2021/03/20 11:54:05;;;;;;;4.93;2.10;;;5.40;57.20;;;;;;4998493;28;20026;-66
2021/03/20 11:56:33;;;;;;;6.30;2.20;;;5.20;57.90;;;;;;5000393;28;20037;-67
2021/03/20 11:59:03;;;;;;;5.72;2.50;;;5.30;59.70;;;;;;4995371;28;20493;-67
2021/03/20 12:01:31;;;;;;;5.65;2.17;;;5.20;58.40;;;;;;4999184;28;20759;-66
2021/03/20 12:04:00;;;;;;;3.80;2.35;;;5.30;58.60;;;;;;5001498;28;20037;-68
2021/03/20 12:06:30;;;;;;;5.80;2.28;;;5.50;58.30;;;;;;5005077;28;20033;-67
2021/03/20 12:08:58;;;;;;;6.00;2.73;;;5.30;58.80;;;;;;4998486;28;20030;-67
2021/03/20 12:11:43;;;;;;;6.18;2.53;;;5.80;58.70;;;;;;5004800;28;20438;-67
2021/03/20 12:14:29;;;;;;;3.95;2.17;;;5.40;58.50;;;;;;4994948;28;20026;-67
2021/03/20 12:17:04;;;;;;;5.05;2.28;;;5.50;59.20;;;;;;4998378;28;20018;-67
2021/03/20 12:19:30;;;;;;;4.55;1.83;;;5.40;59.70;;;;;;4999083;28;20490;-67
2021/03/20 12:22:01;;;;;;;7.28;2.25;;;5.10;58.70;;;;;;5000678;28;20038;-68
2021/03/20 12:24:29;;;;;;;7.22;2.78;;;5.30;59.50;;;;;;4995248;28;20564;-67
2021/03/20 12:26:55;;;;;;;3.88;2.35;;;5.10;58.60;;;;;;4997421;28;20038;-67
2021/03/20 12:29:38;;;;;;;5.68;2.30;;;5.40;59.50;;;;;;4994514;28;20041;-68
2021/03/20 12:32:24;;;;;;;7.10;2.35;;;5.50;58.90;;;;;;5003835;28;20109;-66
2021/03/20 12:34:50;;;;;;;4.63;2.42;;;5.80;58.60;;;;;;4992353;28;20105;-67
2021/03/20 12:37:21;;;;;;;3.97;2.28;;;5.80;58.50;;;;;;5002468;28;20125;-68
2021/03/20 12:39:51;;;;;;;8.43;2.65;;;5.70;59.40;;;;;;5000169;28;20022;-67
2021/03/20 12:42:17;;;;;;;4.50;2.22;;;5.70;59.40;;;;;;5007927;28;20022;-65
2021/03/20 12:44:48;;;;;;;7.72;2.60;;;6.10;59.60;;;;;;4994509;28;20406;-66
2021/03/20 12:47:17;;;;;;;6.78;2.88;;;5.80;58.40;;;;;;5002666;28;20034;-67
2021/03/20 12:49:43;;;;;;;5.63;3.05;;;5.70;60.00;;;;;;5002962;28;20041;-67
2021/03/20 12:52:16;;;;;;;6.68;2.95;;;6.00;61.00;;;;;;5004393;28;20547;-68
2021/03/20 12:54:44;;;;;;;6.65;3.10;;;6.10;60.60;;;;;;5005539;28;20033;-67
2021/03/20 12:57:17;;;;;;;6.35;3.15;;;6.00;60.50;;;;;;5003260;28;20034;-67
2021/03/20 12:59:42;;;;;;;6.00;2.78;;;6.10;62.00;;;;;;4998762;28;20066;-67
2021/03/20 13:02:08;;;;;;;5.38;2.53;;;5.90;61.10;;;;;;4972045;28;20255;-67
2021/03/20 13:04:34;;;;;;;5.20;2.97;;;5.80;60.70;;;;;;4996292;28;20103;-68
2021/03/20 13:07:00;;;;;;;5.47;2.72;;;5.90;60.40;;;;;;4991655;28;20034;-67
2021/03/20 13:09:25;;;;;;;5.45;2.72;;;5.90;60.40;;;;;;5001515;28;20555;-66
2021/03/20 13:11:51;;;;;;;6.55;3.20;;;5.80;61.20;;;;;;4999707;28;20439;-68
2021/03/20 13:14:16;;;;;;;4.78;2.72;;;5.80;62.50;;;;;;4999306;28;20498;-66
2021/03/20 13:16:43;;;;;;;7.35;3.00;;;5.50;63.00;;;;;;5001898;28;20087;-66
2021/03/20 13:19:08;;;;;;;8.30;3.15;;;5.40;63.00;;;;;;4996520;28;20088;-68